sensor_id;sensor_type;location;lat;lon;timestamp;temperature;humidity
38514;DHT22;24282;48.400;10.808;2022-08-19T00:00:30;19.50;87.00
38514;DHT22;24282;48.400;10.808;2022-08-19T00:02:55;19.40;87.30
38514;DHT22;24282;48.400;10.808;2022-08-19T00:05:22;19.40;87.40
38514;DHT22;24282;48.400;10.808;2022-08-19T00:07:49;19.40;87.60
38514;DHT22;24282;48.400;10.808;2022-08-19T00:10:16;19.40;87.70
38514;DHT22;24282;48.400;10.808;2022-08-19T00:12:43;19.40;87.80
38514;DHT22;24282;48.400;10.808;2022-08-19T00:15:12;19.40;87.80
38514;DHT22;24282;48.400;10.808;2022-08-19T00:17:40;19.40;87.80
38514;DHT22;24282;48.400;10.808;2022-08-19T00:20:07;19.40;87.50
38514;DHT22;24282;48.400;10.808;2022-08-19T00:22:33;19.40;87.80
38514;DHT22;24282;48.400;10.808;2022-08-19T00:24:59;19.40;87.90
38514;DHT22;24282;48.400;10.808;2022-08-19T00:27:25;19.40;88.30
38514;DHT22;24282;48.400;10.808;2022-08-19T00:29:50;19.40;88.20
38514;DHT22;24282;48.400;10.808;2022-08-19T00:32:16;19.40;88.10
38514;DHT22;24282;48.400;10.808;2022-08-19T00:34:43;19.40;88.10
38514;DHT22;24282;48.400;10.808;2022-08-19T00:37:09;19.40;87.90
38514;DHT22;24282;48.400;10.808;2022-08-19T00:39:35;19.40;87.90
38514;DHT22;24282;48.400;10.808;2022-08-19T00:42:01;19.50;87.70
38514;DHT22;24282;48.400;10.808;2022-08-19T00:44:28;19.40;88.00
38514;DHT22;24282;48.400;10.808;2022-08-19T00:46:56;19.40;88.10
38514;DHT22;24282;48.400;10.808;2022-08-19T00:51:55;19.40;88.00
38514;DHT22;24282;48.400;10.808;2022-08-19T00:54:23;19.30;88.10
38514;DHT22;24282;48.400;10.808;2022-08-19T00:56:49;19.30;88.40
38514;DHT22;24282;48.400;10.808;2022-08-19T00:59:16;19.30;88.40
38514;DHT22;24282;48.400;10.808;2022-08-19T01:01:44;19.30;88.40
38514;DHT22;24282;48.400;10.808;2022-08-19T01:04:10;19.30;88.50
38514;DHT22;24282;48.400;10.808;2022-08-19T01:06:38;19.30;88.30
38514;DHT22;24282;48.400;10.808;2022-08-19T01:09:05;19.30;88.00
38514;DHT22;24282;48.400;10.808;2022-08-19T01:11:35;19.30;88.00
38514;DHT22;24282;48.400;10.808;2022-08-19T01:14:03;19.20;88.10
38514;DHT22;24282;48.400;10.808;2022-08-19T01:16:30;19.20;88.00
38514;DHT22;24282;48.400;10.808;2022-08-19T01:18:56;19.20;88.10
38514;DHT22;24282;48.400;10.808;2022-08-19T01:21:32;19.20;88.40
38514;DHT22;24282;48.400;10.808;2022-08-19T01:24:00;19.20;88.20
38514;DHT22;24282;48.400;10.808;2022-08-19T01:26:27;19.20;88.30
38514;DHT22;24282;48.400;10.808;2022-08-19T01:28:55;19.20;88.30
38514;DHT22;24282;48.400;10.808;2022-08-19T01:31:26;19.20;88.30
38514;DHT22;24282;48.400;10.808;2022-08-19T01:33:53;19.20;88.40
38514;DHT22;24282;48.400;10.808;2022-08-19T01:36:27;19.20;88.10
38514;DHT22;24282;48.400;10.808;2022-08-19T01:38:53;19.20;88.30
38514;DHT22;24282;48.400;10.808;2022-08-19T01:41:19;19.20;87.90
38514;DHT22;24282;48.400;10.808;2022-08-19T01:43:45;19.20;88.10
38514;DHT22;24282;48.400;10.808;2022-08-19T01:46:11;19.20;88.10
38514;DHT22;24282;48.400;10.808;2022-08-19T01:48:39;19.10;87.80
38514;DHT22;24282;48.400;10.808;2022-08-19T01:51:06;19.10;87.90
38514;DHT22;24282;48.400;10.808;2022-08-19T01:53:33;19.10;87.90
38514;DHT22;24282;48.400;10.808;2022-08-19T01:55:59;19.10;87.90
38514;DHT22;24282;48.400;10.808;2022-08-19T01:58:36;19.10;88.20
38514;DHT22;24282;48.400;10.808;2022-08-19T02:01:05;19.10;88.20
38514;DHT22;24282;48.400;10.808;2022-08-19T02:03:31;19.10;87.50
38514;DHT22;24282;48.400;10.808;2022-08-19T02:05:59;19.10;87.60
38514;DHT22;24282;48.400;10.808;2022-08-19T02:08:26;19.10;87.30
38514;DHT22;24282;48.400;10.808;2022-08-19T02:10:53;19.10;87.60
38514;DHT22;24282;48.400;10.808;2022-08-19T02:13:19;19.10;87.70
38514;DHT22;24282;48.400;10.808;2022-08-19T02:15:45;19.00;87.50
38514;DHT22;24282;48.400;10.808;2022-08-19T02:18:11;19.10;87.60
38514;DHT22;24282;48.400;10.808;2022-08-19T02:20:38;19.00;87.70
38514;DHT22;24282;48.400;10.808;2022-08-19T02:23:05;19.00;88.10
38514;DHT22;24282;48.400;10.808;2022-08-19T02:25:31;19.00;88.30
38514;DHT22;24282;48.400;10.808;2022-08-19T02:27:57;19.00;88.30
38514;DHT22;24282;48.400;10.808;2022-08-19T02:30:23;19.00;88.40
38514;DHT22;24282;48.400;10.808;2022-08-19T02:32:50;19.00;88.40
38514;DHT22;24282;48.400;10.808;2022-08-19T02:35:17;19.00;88.50
38514;DHT22;24282;48.400;10.808;2022-08-19T02:37:43;19.00;88.60
38514;DHT22;24282;48.400;10.808;2022-08-19T02:40:29;19.00;88.40
38514;DHT22;24282;48.400;10.808;2022-08-19T02:42:59;19.00;88.30
38514;DHT22;24282;48.400;10.808;2022-08-19T02:45:25;18.90;88.20
38514;DHT22;24282;48.400;10.808;2022-08-19T02:47:51;18.90;88.30
38514;DHT22;24282;48.400;10.808;2022-08-19T02:50:17;18.90;88.30
38514;DHT22;24282;48.400;10.808;2022-08-19T02:52:43;18.90;88.30
38514;DHT22;24282;48.400;10.808;2022-08-19T02:55:08;18.90;88.40
38514;DHT22;24282;48.400;10.808;2022-08-19T02:57:34;18.90;88.30
38514;DHT22;24282;48.400;10.808;2022-08-19T03:00:03;19.00;88.10
38514;DHT22;24282;48.400;10.808;2022-08-19T03:02:29;18.90;88.10
38514;DHT22;24282;48.400;10.808;2022-08-19T03:04:56;18.90;88.10
38514;DHT22;24282;48.400;10.808;2022-08-19T03:07:21;18.90;88.20
38514;DHT22;24282;48.400;10.808;2022-08-19T03:09:47;18.90;88.20
38514;DHT22;24282;48.400;10.808;2022-08-19T03:12:13;19.00;88.30
38514;DHT22;24282;48.400;10.808;2022-08-19T03:14:39;18.90;88.00
38514;DHT22;24282;48.400;10.808;2022-08-19T03:17:05;18.90;88.20
38514;DHT22;24282;48.400;10.808;2022-08-19T03:19:31;18.90;88.30
38514;DHT22;24282;48.400;10.808;2022-08-19T03:21:57;18.90;88.30
38514;DHT22;24282;48.400;10.808;2022-08-19T03:24:23;18.90;88.20
38514;DHT22;24282;48.400;10.808;2022-08-19T03:26:54;18.90;87.60
38514;DHT22;24282;48.400;10.808;2022-08-19T03:29:30;18.90;87.60
38514;DHT22;24282;48.400;10.808;2022-08-19T03:31:59;18.90;87.80
38514;DHT22;24282;48.400;10.808;2022-08-19T03:34:28;18.90;88.10
38514;DHT22;24282;48.400;10.808;2022-08-19T03:36:56;18.90;88.40
38514;DHT22;24282;48.400;10.808;2022-08-19T03:39:24;18.90;88.60
38514;DHT22;24282;48.400;10.808;2022-08-19T03:41:53;18.90;88.70
38514;DHT22;24282;48.400;10.808;2022-08-19T03:44:22;18.90;88.60
38514;DHT22;24282;48.400;10.808;2022-08-19T03:46:53;18.90;88.50
38514;DHT22;24282;48.400;10.808;2022-08-19T03:49:21;18.90;88.40
38514;DHT22;24282;48.400;10.808;2022-08-19T03:51:48;18.90;88.50
38514;DHT22;24282;48.400;10.808;2022-08-19T03:54:19;18.90;88.50
38514;DHT22;24282;48.400;10.808;2022-08-19T03:56:47;18.90;88.60
38514;DHT22;24282;48.400;10.808;2022-08-19T03:59:22;18.90;88.70
38514;DHT22;24282;48.400;10.808;2022-08-19T04:01:54;18.90;88.80
38514;DHT22;24282;48.400;10.808;2022-08-19T04:04:20;18.90;88.80
38514;DHT22;24282;48.400;10.808;2022-08-19T04:06:47;18.90;88.90
38514;DHT22;24282;48.400;10.808;2022-08-19T04:09:13;18.90;88.90
38514;DHT22;24282;48.400;10.808;2022-08-19T04:11:45;18.90;88.80
38514;DHT22;24282;48.400;10.808;2022-08-19T04:14:18;18.80;88.70
38514;DHT22;24282;48.400;10.808;2022-08-19T04:16:44;18.90;88.70
38514;DHT22;24282;48.400;10.808;2022-08-19T04:19:13;18.90;88.30
38514;DHT22;24282;48.400;10.808;2022-08-19T04:21:39;18.90;88.20
38514;DHT22;24282;48.400;10.808;2022-08-19T04:24:06;18.90;88.10
38514;DHT22;24282;48.400;10.808;2022-08-19T04:26:34;18.90;88.30
38514;DHT22;24282;48.400;10.808;2022-08-19T04:29:03;18.90;88.60
38514;DHT22;24282;48.400;10.808;2022-08-19T04:31:32;18.90;88.70
38514;DHT22;24282;48.400;10.808;2022-08-19T04:34:02;18.90;88.70
38514;DHT22;24282;48.400;10.808;2022-08-19T04:36:32;18.90;88.50
38514;DHT22;24282;48.400;10.808;2022-08-19T04:39:02;18.90;88.60
38514;DHT22;24282;48.400;10.808;2022-08-19T04:41:29;18.80;88.70
38514;DHT22;24282;48.400;10.808;2022-08-19T04:44:14;18.90;88.50
38514;DHT22;24282;48.400;10.808;2022-08-19T04:46:44;18.90;88.20
38514;DHT22;24282;48.400;10.808;2022-08-19T04:49:14;18.90;87.70
38514;DHT22;24282;48.400;10.808;2022-08-19T04:51:43;18.90;88.00
38514;DHT22;24282;48.400;10.808;2022-08-19T04:54:09;18.90;88.20
38514;DHT22;24282;48.400;10.808;2022-08-19T04:56:35;18.90;88.10
38514;DHT22;24282;48.400;10.808;2022-08-19T04:59:01;18.80;88.10
38514;DHT22;24282;48.400;10.808;2022-08-19T05:01:31;18.90;88.20
38514;DHT22;24282;48.400;10.808;2022-08-19T05:04:04;18.80;88.50
38514;DHT22;24282;48.400;10.808;2022-08-19T05:06:31;18.80;88.60
38514;DHT22;24282;48.400;10.808;2022-08-19T05:09:03;18.80;88.60
38514;DHT22;24282;48.400;10.808;2022-08-19T05:11:32;18.80;88.70
38514;DHT22;24282;48.400;10.808;2022-08-19T05:13:58;18.80;88.80
38514;DHT22;24282;48.400;10.808;2022-08-19T05:16:26;18.70;88.80
38514;DHT22;24282;48.400;10.808;2022-08-19T05:18:52;18.80;88.90
38514;DHT22;24282;48.400;10.808;2022-08-19T05:21:38;18.80;89.00
38514;DHT22;24282;48.400;10.808;2022-08-19T05:24:23;18.70;89.10
38514;DHT22;24282;48.400;10.808;2022-08-19T05:26:50;18.80;89.20
38514;DHT22;24282;48.400;10.808;2022-08-19T05:29:19;18.80;89.20
38514;DHT22;24282;48.400;10.808;2022-08-19T05:31:46;18.80;88.80
38514;DHT22;24282;48.400;10.808;2022-08-19T05:34:15;18.80;88.80
38514;DHT22;24282;48.400;10.808;2022-08-19T05:36:43;18.90;88.40
38514;DHT22;24282;48.400;10.808;2022-08-19T05:39:13;18.90;88.30
38514;DHT22;24282;48.400;10.808;2022-08-19T05:41:48;18.90;88.70
38514;DHT22;24282;48.400;10.808;2022-08-19T05:44:15;18.90;88.90
38514;DHT22;24282;48.400;10.808;2022-08-19T05:46:43;18.90;89.20
38514;DHT22;24282;48.400;10.808;2022-08-19T05:49:09;18.90;89.20
38514;DHT22;24282;48.400;10.808;2022-08-19T05:51:36;18.80;89.20
38514;DHT22;24282;48.400;10.808;2022-08-19T05:54:05;18.80;89.20
38514;DHT22;24282;48.400;10.808;2022-08-19T05:56:31;18.90;89.30
38514;DHT22;24282;48.400;10.808;2022-08-19T05:58:58;18.90;89.10
38514;DHT22;24282;48.400;10.808;2022-08-19T06:01:25;18.90;89.30
38514;DHT22;24282;48.400;10.808;2022-08-19T06:03:51;18.90;89.30
38514;DHT22;24282;48.400;10.808;2022-08-19T06:06:18;18.90;89.40
38514;DHT22;24282;48.400;10.808;2022-08-19T06:08:44;18.90;89.30
38514;DHT22;24282;48.400;10.808;2022-08-19T06:11:33;18.90;89.30
38514;DHT22;24282;48.400;10.808;2022-08-19T06:14:04;18.90;89.40
38514;DHT22;24282;48.400;10.808;2022-08-19T06:16:30;18.90;89.60
38514;DHT22;24282;48.400;10.808;2022-08-19T06:18:59;18.90;89.50
38514;DHT22;24282;48.400;10.808;2022-08-19T06:21:27;18.90;89.40
38514;DHT22;24282;48.400;10.808;2022-08-19T06:23:54;18.90;89.30
38514;DHT22;24282;48.400;10.808;2022-08-19T06:26:20;18.90;89.40
38514;DHT22;24282;48.400;10.808;2022-08-19T06:28:48;18.90;89.30
38514;DHT22;24282;48.400;10.808;2022-08-19T06:31:19;18.90;89.30
38514;DHT22;24282;48.400;10.808;2022-08-19T06:33:47;18.90;89.30
38514;DHT22;24282;48.400;10.808;2022-08-19T06:36:37;18.90;89.40
38514;DHT22;24282;48.400;10.808;2022-08-19T06:39:06;18.90;89.30
38514;DHT22;24282;48.400;10.808;2022-08-19T06:41:35;18.90;89.40
38514;DHT22;24282;48.400;10.808;2022-08-19T06:44:02;18.90;89.50
38514;DHT22;24282;48.400;10.808;2022-08-19T06:46:28;18.90;89.60
38514;DHT22;24282;48.400;10.808;2022-08-19T06:48:54;18.90;89.50
38514;DHT22;24282;48.400;10.808;2022-08-19T06:51:21;18.90;89.50
38514;DHT22;24282;48.400;10.808;2022-08-19T06:53:48;18.90;89.40
38514;DHT22;24282;48.400;10.808;2022-08-19T06:56:16;18.90;89.30
38514;DHT22;24282;48.400;10.808;2022-08-19T06:58:42;18.90;89.40
38514;DHT22;24282;48.400;10.808;2022-08-19T07:01:09;18.90;89.40
38514;DHT22;24282;48.400;10.808;2022-08-19T07:03:36;18.90;89.20
38514;DHT22;24282;48.400;10.808;2022-08-19T07:06:04;18.90;89.10
38514;DHT22;24282;48.400;10.808;2022-08-19T07:08:30;18.90;89.00
38514;DHT22;24282;48.400;10.808;2022-08-19T07:10:56;18.90;89.20
38514;DHT22;24282;48.400;10.808;2022-08-19T07:13:22;18.90;89.30
38514;DHT22;24282;48.400;10.808;2022-08-19T07:15:49;18.90;89.30
38514;DHT22;24282;48.400;10.808;2022-08-19T07:18:19;18.90;89.40
38514;DHT22;24282;48.400;10.808;2022-08-19T07:20:46;18.90;89.50
38514;DHT22;24282;48.400;10.808;2022-08-19T07:23:12;18.90;89.50
38514;DHT22;24282;48.400;10.808;2022-08-19T07:25:38;18.90;89.70
38514;DHT22;24282;48.400;10.808;2022-08-19T07:28:05;18.90;89.80
38514;DHT22;24282;48.400;10.808;2022-08-19T07:30:32;18.90;89.60
38514;DHT22;24282;48.400;10.808;2022-08-19T07:33:01;18.90;89.60
38514;DHT22;24282;48.400;10.808;2022-08-19T07:35:26;18.90;89.50
38514;DHT22;24282;48.400;10.808;2022-08-19T07:37:53;18.90;89.40
38514;DHT22;24282;48.400;10.808;2022-08-19T07:40:19;18.90;89.70
38514;DHT22;24282;48.400;10.808;2022-08-19T07:42:45;18.90;89.80
38514;DHT22;24282;48.400;10.808;2022-08-19T07:45:11;18.90;89.80
38514;DHT22;24282;48.400;10.808;2022-08-19T07:47:37;18.90;89.90
38514;DHT22;24282;48.400;10.808;2022-08-19T07:50:07;18.90;89.90
38514;DHT22;24282;48.400;10.808;2022-08-19T07:52:33;18.90;89.90
38514;DHT22;24282;48.400;10.808;2022-08-19T07:55:01;18.90;89.60
38514;DHT22;24282;48.400;10.808;2022-08-19T07:57:29;18.90;89.30
38514;DHT22;24282;48.400;10.808;2022-08-19T07:59:54;19.00;89.10
38514;DHT22;24282;48.400;10.808;2022-08-19T08:02:21;19.00;89.00
38514;DHT22;24282;48.400;10.808;2022-08-19T08:04:46;19.00;89.10
38514;DHT22;24282;48.400;10.808;2022-08-19T08:07:31;19.00;88.80
38514;DHT22;24282;48.400;10.808;2022-08-19T08:10:15;19.00;88.80
38514;DHT22;24282;48.400;10.808;2022-08-19T08:12:41;19.00;88.50
38514;DHT22;24282;48.400;10.808;2022-08-19T08:15:11;19.00;88.30
38514;DHT22;24282;48.400;10.808;2022-08-19T08:17:40;18.90;88.80
38514;DHT22;24282;48.400;10.808;2022-08-19T08:20:06;18.90;89.00
38514;DHT22;24282;48.400;10.808;2022-08-19T08:22:32;19.00;89.20
38514;DHT22;24282;48.400;10.808;2022-08-19T08:25:20;19.00;89.40
38514;DHT22;24282;48.400;10.808;2022-08-19T08:27:46;19.10;88.50
38514;DHT22;24282;48.400;10.808;2022-08-19T08:30:18;19.00;88.70
38514;DHT22;24282;48.400;10.808;2022-08-19T08:32:44;19.10;89.00
38514;DHT22;24282;48.400;10.808;2022-08-19T08:35:13;19.00;89.00
38514;DHT22;24282;48.400;10.808;2022-08-19T08:37:39;19.00;89.30
38514;DHT22;24282;48.400;10.808;2022-08-19T08:40:18;19.00;88.70
38514;DHT22;24282;48.400;10.808;2022-08-19T08:43:13;19.00;88.70
38514;DHT22;24282;48.400;10.808;2022-08-19T08:45:42;19.00;89.00
38514;DHT22;24282;48.400;10.808;2022-08-19T08:48:19;19.00;89.30
38514;DHT22;24282;48.400;10.808;2022-08-19T08:50:48;19.00;89.20
38514;DHT22;24282;48.400;10.808;2022-08-19T08:53:19;19.00;89.20
38514;DHT22;24282;48.400;10.808;2022-08-19T08:55:46;19.00;89.00
38514;DHT22;24282;48.400;10.808;2022-08-19T08:58:36;19.00;88.90
38514;DHT22;24282;48.400;10.808;2022-08-19T09:01:10;19.00;89.20
38514;DHT22;24282;48.400;10.808;2022-08-19T09:03:41;19.00;89.20
38514;DHT22;24282;48.400;10.808;2022-08-19T09:06:14;19.00;89.10
38514;DHT22;24282;48.400;10.808;2022-08-19T09:16:45;19.10;88.60
38514;DHT22;24282;48.400;10.808;2022-08-19T09:19:10;19.10;88.60
38514;DHT22;24282;48.400;10.808;2022-08-19T09:21:36;19.10;88.80
38514;DHT22;24282;48.400;10.808;2022-08-19T09:24:04;19.10;88.80
38514;DHT22;24282;48.400;10.808;2022-08-19T09:26:31;19.10;88.90
38514;DHT22;24282;48.400;10.808;2022-08-19T09:28:58;19.10;88.50
38514;DHT22;24282;48.400;10.808;2022-08-19T09:31:27;19.10;88.70
38514;DHT22;24282;48.400;10.808;2022-08-19T09:33:54;19.10;88.40
38514;DHT22;24282;48.400;10.808;2022-08-19T09:36:27;19.10;88.30
38514;DHT22;24282;48.400;10.808;2022-08-19T09:38:54;19.10;88.20
38514;DHT22;24282;48.400;10.808;2022-08-19T09:41:23;19.10;88.30
38514;DHT22;24282;48.400;10.808;2022-08-19T09:43:52;19.10;88.70
38514;DHT22;24282;48.400;10.808;2022-08-19T09:46:19;19.10;88.20
38514;DHT22;24282;48.400;10.808;2022-08-19T09:48:49;19.10;88.00
38514;DHT22;24282;48.400;10.808;2022-08-19T09:51:22;19.10;88.10
38514;DHT22;24282;48.400;10.808;2022-08-19T09:53:51;19.10;88.00
38514;DHT22;24282;48.400;10.808;2022-08-19T09:56:20;19.00;88.30
38514;DHT22;24282;48.400;10.808;2022-08-19T09:58:47;19.10;88.30
38514;DHT22;24282;48.400;10.808;2022-08-19T10:01:18;19.00;88.20
38514;DHT22;24282;48.400;10.808;2022-08-19T10:03:48;19.00;89.00
38514;DHT22;24282;48.400;10.808;2022-08-19T10:06:15;18.90;88.90
38514;DHT22;24282;48.400;10.808;2022-08-19T10:08:41;19.00;88.60
38514;DHT22;24282;48.400;10.808;2022-08-19T10:11:08;19.10;88.80
38514;DHT22;24282;48.400;10.808;2022-08-19T10:13:35;19.00;88.40
38514;DHT22;24282;48.400;10.808;2022-08-19T10:16:07;19.00;88.60
38514;DHT22;24282;48.400;10.808;2022-08-19T10:18:33;19.00;88.70
38514;DHT22;24282;48.400;10.808;2022-08-19T10:21:09;19.00;88.20
38514;DHT22;24282;48.400;10.808;2022-08-19T10:23:40;19.00;88.20
38514;DHT22;24282;48.400;10.808;2022-08-19T10:26:13;19.00;88.10
38514;DHT22;24282;48.400;10.808;2022-08-19T10:28:39;18.90;88.40
38514;DHT22;24282;48.400;10.808;2022-08-19T10:31:10;18.90;88.90
38514;DHT22;24282;48.400;10.808;2022-08-19T10:33:38;18.90;88.40
38514;DHT22;24282;48.400;10.808;2022-08-19T10:36:07;18.90;88.50
38514;DHT22;24282;48.400;10.808;2022-08-19T10:38:33;18.90;88.70
38514;DHT22;24282;48.400;10.808;2022-08-19T10:41:20;18.90;89.20
38514;DHT22;24282;48.400;10.808;2022-08-19T10:43:53;19.00;88.60
38514;DHT22;24282;48.400;10.808;2022-08-19T10:46:21;18.90;88.60
38514;DHT22;24282;48.400;10.808;2022-08-19T10:48:49;18.90;88.60
38514;DHT22;24282;48.400;10.808;2022-08-19T10:51:15;18.90;88.40
38514;DHT22;24282;48.400;10.808;2022-08-19T10:54:00;18.90;88.70
38514;DHT22;24282;48.400;10.808;2022-08-19T10:56:27;18.90;89.10
38514;DHT22;24282;48.400;10.808;2022-08-19T10:59:12;18.90;88.60
38514;DHT22;24282;48.400;10.808;2022-08-19T11:01:40;18.90;88.20
38514;DHT22;24282;48.400;10.808;2022-08-19T11:04:06;18.80;88.50
38514;DHT22;24282;48.400;10.808;2022-08-19T11:06:39;18.80;88.70
38514;DHT22;24282;48.400;10.808;2022-08-19T11:09:07;18.80;88.90
38514;DHT22;24282;48.400;10.808;2022-08-19T11:11:34;18.80;88.70
38514;DHT22;24282;48.400;10.808;2022-08-19T11:14:10;18.80;88.30
38514;DHT22;24282;48.400;10.808;2022-08-19T11:16:36;18.80;88.50
38514;DHT22;24282;48.400;10.808;2022-08-19T11:19:05;18.80;89.00
38514;DHT22;24282;48.400;10.808;2022-08-19T11:21:35;18.70;89.20
38514;DHT22;24282;48.400;10.808;2022-08-19T11:24:05;18.60;89.10
38514;DHT22;24282;48.400;10.808;2022-08-19T11:26:32;18.60;89.30
38514;DHT22;24282;48.400;10.808;2022-08-19T11:28:59;18.60;89.50
38514;DHT22;24282;48.400;10.808;2022-08-19T11:31:30;18.70;89.70
38514;DHT22;24282;48.400;10.808;2022-08-19T11:34:02;18.70;89.70
38514;DHT22;24282;48.400;10.808;2022-08-19T11:36:28;18.70;89.60
38514;DHT22;24282;48.400;10.808;2022-08-19T11:38:54;18.70;89.80
38514;DHT22;24282;48.400;10.808;2022-08-19T11:41:22;18.70;89.80
38514;DHT22;24282;48.400;10.808;2022-08-19T11:43:52;18.70;89.80
38514;DHT22;24282;48.400;10.808;2022-08-19T11:46:19;18.70;89.90
38514;DHT22;24282;48.400;10.808;2022-08-19T11:48:45;18.70;90.00
38514;DHT22;24282;48.400;10.808;2022-08-19T11:51:16;18.70;90.00
38514;DHT22;24282;48.400;10.808;2022-08-19T11:53:42;18.70;90.10
38514;DHT22;24282;48.400;10.808;2022-08-19T11:56:09;18.70;90.00
38514;DHT22;24282;48.400;10.808;2022-08-19T11:58:36;18.70;89.80
38514;DHT22;24282;48.400;10.808;2022-08-19T12:01:06;18.70;89.90
38514;DHT22;24282;48.400;10.808;2022-08-19T12:03:32;18.70;89.80
38514;DHT22;24282;48.400;10.808;2022-08-19T12:06:10;18.80;89.50
38514;DHT22;24282;48.400;10.808;2022-08-19T12:08:39;18.80;89.30
38514;DHT22;24282;48.400;10.808;2022-08-19T12:11:06;18.80;89.20
38514;DHT22;24282;48.400;10.808;2022-08-19T12:13:33;18.80;89.00
38514;DHT22;24282;48.400;10.808;2022-08-19T12:15:59;18.80;89.20
38514;DHT22;24282;48.400;10.808;2022-08-19T12:18:26;18.80;89.10
38514;DHT22;24282;48.400;10.808;2022-08-19T12:20:53;18.70;89.10
38514;DHT22;24282;48.400;10.808;2022-08-19T12:23:22;18.70;89.50
38514;DHT22;24282;48.400;10.808;2022-08-19T12:25:49;18.60;89.70
38514;DHT22;24282;48.400;10.808;2022-08-19T12:28:22;18.60;89.70
38514;DHT22;24282;48.400;10.808;2022-08-19T12:30:49;18.60;89.80
38514;DHT22;24282;48.400;10.808;2022-08-19T12:33:18;18.70;89.40
38514;DHT22;24282;48.400;10.808;2022-08-19T12:35:45;18.60;89.30
38514;DHT22;24282;48.400;10.808;2022-08-19T12:38:15;18.70;89.30
38514;DHT22;24282;48.400;10.808;2022-08-19T12:40:41;18.70;89.30
38514;DHT22;24282;48.400;10.808;2022-08-19T12:43:07;18.70;89.60
38514;DHT22;24282;48.400;10.808;2022-08-19T12:45:34;18.80;89.20
38514;DHT22;24282;48.400;10.808;2022-08-19T12:47:59;18.80;88.90
38514;DHT22;24282;48.400;10.808;2022-08-19T12:50:25;18.70;89.20
38514;DHT22;24282;48.400;10.808;2022-08-19T12:52:51;18.70;89.50
38514;DHT22;24282;48.400;10.808;2022-08-19T12:55:17;18.80;89.10
38514;DHT22;24282;48.400;10.808;2022-08-19T12:57:44;18.70;89.20
38514;DHT22;24282;48.400;10.808;2022-08-19T13:00:13;18.80;89.40
38514;DHT22;24282;48.400;10.808;2022-08-19T13:02:43;18.70;89.60
38514;DHT22;24282;48.400;10.808;2022-08-19T13:05:12;18.70;89.80
38514;DHT22;24282;48.400;10.808;2022-08-19T13:07:39;18.80;90.00
38514;DHT22;24282;48.400;10.808;2022-08-19T13:10:10;18.80;90.10
38514;DHT22;24282;48.400;10.808;2022-08-19T13:12:38;18.80;90.10
38514;DHT22;24282;48.400;10.808;2022-08-19T13:15:04;18.90;90.00
38514;DHT22;24282;48.400;10.808;2022-08-19T13:17:30;18.90;90.00
38514;DHT22;24282;48.400;10.808;2022-08-19T13:19:56;18.90;89.90
38514;DHT22;24282;48.400;10.808;2022-08-19T13:22:22;18.90;90.00
38514;DHT22;24282;48.400;10.808;2022-08-19T13:24:49;18.90;90.00
38514;DHT22;24282;48.400;10.808;2022-08-19T13:27:15;19.00;89.90
38514;DHT22;24282;48.400;10.808;2022-08-19T13:29:41;19.00;89.80
38514;DHT22;24282;48.400;10.808;2022-08-19T13:32:25;19.10;89.90
38514;DHT22;24282;48.400;10.808;2022-08-19T13:35:10;19.10;89.90
38514;DHT22;24282;48.400;10.808;2022-08-19T13:37:36;19.10;89.50
38514;DHT22;24282;48.400;10.808;2022-08-19T13:40:28;19.10;89.70
38514;DHT22;24282;48.400;10.808;2022-08-19T13:42:55;19.10;89.50
38514;DHT22;24282;48.400;10.808;2022-08-19T13:45:23;19.10;89.30
38514;DHT22;24282;48.400;10.808;2022-08-19T13:47:51;19.10;89.40
38514;DHT22;24282;48.400;10.808;2022-08-19T13:50:22;19.20;89.50
38514;DHT22;24282;48.400;10.808;2022-08-19T13:52:51;19.20;88.70
38514;DHT22;24282;48.400;10.808;2022-08-19T13:55:17;19.20;89.00
38514;DHT22;24282;48.400;10.808;2022-08-19T13:57:43;19.20;89.10
38514;DHT22;24282;48.400;10.808;2022-08-19T14:00:13;19.20;88.70
38514;DHT22;24282;48.400;10.808;2022-08-19T14:02:40;19.10;89.20
38514;DHT22;24282;48.400;10.808;2022-08-19T14:05:08;19.10;89.30
38514;DHT22;24282;48.400;10.808;2022-08-19T14:07:34;19.10;89.20
38514;DHT22;24282;48.400;10.808;2022-08-19T14:10:02;19.20;89.00
38514;DHT22;24282;48.400;10.808;2022-08-19T14:12:27;19.20;89.10
38514;DHT22;24282;48.400;10.808;2022-08-19T14:14:53;19.10;89.40
38514;DHT22;24282;48.400;10.808;2022-08-19T14:17:19;19.20;89.20
38514;DHT22;24282;48.400;10.808;2022-08-19T14:19:45;19.10;88.90
38514;DHT22;24282;48.400;10.808;2022-08-19T14:22:10;19.10;89.10
38514;DHT22;24282;48.400;10.808;2022-08-19T14:24:39;19.10;89.30
38514;DHT22;24282;48.400;10.808;2022-08-19T14:27:06;19.10;89.30
38514;DHT22;24282;48.400;10.808;2022-08-19T14:29:33;19.10;89.30
38514;DHT22;24282;48.400;10.808;2022-08-19T14:31:59;19.00;89.50
38514;DHT22;24282;48.400;10.808;2022-08-19T14:34:26;19.00;89.70
38514;DHT22;24282;48.400;10.808;2022-08-19T14:36:52;19.00;89.60
38514;DHT22;24282;48.400;10.808;2022-08-19T14:39:18;19.00;89.60
38514;DHT22;24282;48.400;10.808;2022-08-19T14:41:44;19.00;89.90
38514;DHT22;24282;48.400;10.808;2022-08-19T14:44:11;19.00;89.90
38514;DHT22;24282;48.400;10.808;2022-08-19T14:46:38;19.00;89.70
38514;DHT22;24282;48.400;10.808;2022-08-19T14:49:04;19.00;89.60
38514;DHT22;24282;48.400;10.808;2022-08-19T14:51:30;19.10;89.70
38514;DHT22;24282;48.400;10.808;2022-08-19T14:53:56;19.10;89.50
38514;DHT22;24282;48.400;10.808;2022-08-19T14:56:25;19.10;89.30
38514;DHT22;24282;48.400;10.808;2022-08-19T14:58:52;19.10;89.30
38514;DHT22;24282;48.400;10.808;2022-08-19T15:01:19;19.10;88.90
38514;DHT22;24282;48.400;10.808;2022-08-19T15:03:48;19.00;89.00
38514;DHT22;24282;48.400;10.808;2022-08-19T15:06:15;19.00;89.10
38514;DHT22;24282;48.400;10.808;2022-08-19T15:08:42;19.00;89.00
38514;DHT22;24282;48.400;10.808;2022-08-19T15:11:11;19.00;89.20
38514;DHT22;24282;48.400;10.808;2022-08-19T15:13:38;19.00;89.30
38514;DHT22;24282;48.400;10.808;2022-08-19T15:16:05;18.90;89.40
38514;DHT22;24282;48.400;10.808;2022-08-19T15:18:30;18.90;89.60
38514;DHT22;24282;48.400;10.808;2022-08-19T15:20:58;19.00;89.00
38514;DHT22;24282;48.400;10.808;2022-08-19T15:23:25;18.90;88.80
38514;DHT22;24282;48.400;10.808;2022-08-19T15:25:50;18.90;88.90
38514;DHT22;24282;48.400;10.808;2022-08-19T15:28:24;18.90;89.20
38514;DHT22;24282;48.400;10.808;2022-08-19T15:30:51;19.00;89.20
38514;DHT22;24282;48.400;10.808;2022-08-19T15:33:18;18.90;89.10